sensor_id;sensor_type;location;lat;lon;timestamp;temperature;humidity
23237;DHT22;11787;52.018;8.570;2023-03-01T00:01:14;-1.30;99.90
23237;DHT22;11787;52.018;8.570;2023-03-01T00:03:41;-1.30;99.90
23237;DHT22;11787;52.018;8.570;2023-03-01T00:06:07;-1.30;99.90
23237;DHT22;11787;52.018;8.570;2023-03-01T00:08:33;-1.40;99.90
23237;DHT22;11787;52.018;8.570;2023-03-01T00:11:10;-1.40;99.90
23237;DHT22;11787;52.018;8.570;2023-03-01T00:13:37;-1.40;99.90
23237;DHT22;11787;52.018;8.570;2023-03-01T00:16:05;-1.40;99.90
23237;DHT22;11787;52.018;8.570;2023-03-01T00:18:31;-1.40;99.90
23237;DHT22;11787;52.018;8.570;2023-03-01T00:20:57;-1.40;99.90
23237;DHT22;11787;52.018;8.570;2023-03-01T00:23:23;-1.40;99.90
23237;DHT22;11787;52.018;8.570;2023-03-01T00:25:49;-1.40;99.90
23237;DHT22;11787;52.018;8.570;2023-03-01T00:28:15;-1.40;99.90
23237;DHT22;11787;52.018;8.570;2023-03-01T00:30:41;-1.40;99.90
23237;DHT22;11787;52.018;8.570;2023-03-01T00:33:07;-1.40;99.90
23237;DHT22;11787;52.018;8.570;2023-03-01T00:35:33;-1.40;99.90
23237;DHT22;11787;52.018;8.570;2023-03-01T00:37:59;-1.50;99.90
23237;DHT22;11787;52.018;8.570;2023-03-01T00:40:26;-1.50;99.90
23237;DHT22;11787;52.018;8.570;2023-03-01T00:42:51;-1.60;99.90
23237;DHT22;11787;52.018;8.570;2023-03-01T00:45:17;-1.80;99.90
23237;DHT22;11787;52.018;8.570;2023-03-01T00:47:43;-1.90;99.90
23237;DHT22;11787;52.018;8.570;2023-03-01T00:50:09;-1.90;99.90
23237;DHT22;11787;52.018;8.570;2023-03-01T00:52:35;-1.80;99.90
23237;DHT22;11787;52.018;8.570;2023-03-01T00:55:02;-1.80;99.90
23237;DHT22;11787;52.018;8.570;2023-03-01T00:57:28;-1.80;99.90
23237;DHT22;11787;52.018;8.570;2023-03-01T00:59:53;-1.90;99.90
23237;DHT22;11787;52.018;8.570;2023-03-01T01:02:19;-1.90;99.90
23237;DHT22;11787;52.018;8.570;2023-03-01T01:04:46;-1.90;99.90
23237;DHT22;11787;52.018;8.570;2023-03-01T01:07:12;-1.80;99.90
23237;DHT22;11787;52.018;8.570;2023-03-01T01:09:37;-1.80;99.90
23237;DHT22;11787;52.018;8.570;2023-03-01T01:12:03;-1.80;99.90
23237;DHT22;11787;52.018;8.570;2023-03-01T01:14:29;-1.80;99.90
23237;DHT22;11787;52.018;8.570;2023-03-01T01:16:55;-1.80;99.90
23237;DHT22;11787;52.018;8.570;2023-03-01T01:19:21;-1.80;99.90
23237;DHT22;11787;52.018;8.570;2023-03-01T01:21:47;-1.80;99.90
23237;DHT22;11787;52.018;8.570;2023-03-01T01:24:14;-1.80;99.90
23237;DHT22;11787;52.018;8.570;2023-03-01T01:26:40;-1.80;99.90
23237;DHT22;11787;52.018;8.570;2023-03-01T01:29:07;-1.80;99.90
23237;DHT22;11787;52.018;8.570;2023-03-01T01:31:34;-1.80;99.90
23237;DHT22;11787;52.018;8.570;2023-03-01T01:34:01;-1.80;99.90
23237;DHT22;11787;52.018;8.570;2023-03-01T01:36:28;-1.80;99.90
23237;DHT22;11787;52.018;8.570;2023-03-01T01:38:54;-1.80;99.90
23237;DHT22;11787;52.018;8.570;2023-03-01T01:41:20;-1.80;99.90
23237;DHT22;11787;52.018;8.570;2023-03-01T01:43:49;-1.80;99.90
23237;DHT22;11787;52.018;8.570;2023-03-01T01:46:32;-1.90;99.90
23237;DHT22;11787;52.018;8.570;2023-03-01T01:49:06;-1.90;99.90
23237;DHT22;11787;52.018;8.570;2023-03-01T01:51:37;-1.90;99.90
23237;DHT22;11787;52.018;8.570;2023-03-01T01:54:13;-2.00;99.90
23237;DHT22;11787;52.018;8.570;2023-03-01T01:56:42;-2.00;99.90
23237;DHT22;11787;52.018;8.570;2023-03-01T01:59:10;-2.00;99.90
23237;DHT22;11787;52.018;8.570;2023-03-01T02:01:36;-2.00;99.90
23237;DHT22;11787;52.018;8.570;2023-03-01T02:04:02;-2.10;99.90
23237;DHT22;11787;52.018;8.570;2023-03-01T02:06:37;-2.20;99.90
23237;DHT22;11787;52.018;8.570;2023-03-01T02:09:08;-2.30;99.90
23237;DHT22;11787;52.018;8.570;2023-03-01T02:11:37;-2.30;99.90
23237;DHT22;11787;52.018;8.570;2023-03-01T02:14:03;-2.30;99.90
23237;DHT22;11787;52.018;8.570;2023-03-01T02:16:29;-2.30;99.90
23237;DHT22;11787;52.018;8.570;2023-03-01T02:18:56;-2.30;99.90
23237;DHT22;11787;52.018;8.570;2023-03-01T02:23:52;-2.40;99.90
23237;DHT22;11787;52.018;8.570;2023-03-01T02:26:40;-2.30;99.90
23237;DHT22;11787;52.018;8.570;2023-03-01T02:29:06;-2.30;99.90
23237;DHT22;11787;52.018;8.570;2023-03-01T02:31:32;-2.30;99.90
23237;DHT22;11787;52.018;8.570;2023-03-01T02:34:14;-2.30;99.90
23237;DHT22;11787;52.018;8.570;2023-03-01T02:36:42;-2.30;99.90
23237;DHT22;11787;52.018;8.570;2023-03-01T02:39:14;-2.30;99.90
23237;DHT22;11787;52.018;8.570;2023-03-01T02:41:47;-2.30;99.90
23237;DHT22;11787;52.018;8.570;2023-03-01T02:44:14;-2.30;99.90
23237;DHT22;11787;52.018;8.570;2023-03-01T02:46:47;-2.40;99.90
23237;DHT22;11787;52.018;8.570;2023-03-01T02:49:33;-2.40;99.90
23237;DHT22;11787;52.018;8.570;2023-03-01T02:57:09;-2.50;99.90
23237;DHT22;11787;52.018;8.570;2023-03-01T02:59:36;-2.50;99.90
23237;DHT22;11787;52.018;8.570;2023-03-01T03:02:32;-2.40;99.90
23237;DHT22;11787;52.018;8.570;2023-03-01T03:05:05;-2.50;99.90
23237;DHT22;11787;52.018;8.570;2023-03-01T03:07:32;-2.50;99.90
23237;DHT22;11787;52.018;8.570;2023-03-01T03:09:59;-2.60;99.90
23237;DHT22;11787;52.018;8.570;2023-03-01T03:12:25;-2.70;99.90
23237;DHT22;11787;52.018;8.570;2023-03-01T03:14:50;-2.70;99.90
23237;DHT22;11787;52.018;8.570;2023-03-01T03:17:16;-2.80;99.90
23237;DHT22;11787;52.018;8.570;2023-03-01T03:19:41;-2.80;99.90
23237;DHT22;11787;52.018;8.570;2023-03-01T03:22:12;-2.80;99.90
23237;DHT22;11787;52.018;8.570;2023-03-01T03:24:37;-2.80;99.90
23237;DHT22;11787;52.018;8.570;2023-03-01T03:27:04;-2.80;99.90
23237;DHT22;11787;52.018;8.570;2023-03-01T03:29:30;-2.70;99.90
23237;DHT22;11787;52.018;8.570;2023-03-01T03:31:56;-2.70;99.90
23237;DHT22;11787;52.018;8.570;2023-03-01T03:34:21;-2.70;99.90
23237;DHT22;11787;52.018;8.570;2023-03-01T03:36:47;-2.80;99.90
23237;DHT22;11787;52.018;8.570;2023-03-01T03:39:13;-2.80;99.90
23237;DHT22;11787;52.018;8.570;2023-03-01T03:41:38;-2.90;99.90
23237;DHT22;11787;52.018;8.570;2023-03-01T03:44:04;-3.00;99.90
23237;DHT22;11787;52.018;8.570;2023-03-01T03:46:29;-2.90;99.90
23237;DHT22;11787;52.018;8.570;2023-03-01T03:48:55;-2.90;99.90
23237;DHT22;11787;52.018;8.570;2023-03-01T03:51:21;-2.90;99.90
23237;DHT22;11787;52.018;8.570;2023-03-01T03:53:48;-2.90;99.90
23237;DHT22;11787;52.018;8.570;2023-03-01T03:56:13;-2.80;99.90
23237;DHT22;11787;52.018;8.570;2023-03-01T03:58:39;-2.80;99.90
23237;DHT22;11787;52.018;8.570;2023-03-01T04:01:05;-2.80;99.90
23237;DHT22;11787;52.018;8.570;2023-03-01T04:03:32;-2.80;99.90
23237;DHT22;11787;52.018;8.570;2023-03-01T04:05:58;-2.80;99.90
23237;DHT22;11787;52.018;8.570;2023-03-01T04:08:24;-2.70;99.90
23237;DHT22;11787;52.018;8.570;2023-03-01T04:10:52;-2.70;99.90
23237;DHT22;11787;52.018;8.570;2023-03-01T04:13:20;-2.80;99.90
23237;DHT22;11787;52.018;8.570;2023-03-01T04:15:50;-2.80;99.90
23237;DHT22;11787;52.018;8.570;2023-03-01T04:18:18;-2.80;99.90
23237;DHT22;11787;52.018;8.570;2023-03-01T04:20:44;-2.80;99.90
23237;DHT22;11787;52.018;8.570;2023-03-01T04:23:13;-2.80;99.90
23237;DHT22;11787;52.018;8.570;2023-03-01T04:28:22;-2.80;99.90
23237;DHT22;11787;52.018;8.570;2023-03-01T04:30:50;-2.80;99.90
23237;DHT22;11787;52.018;8.570;2023-03-01T04:33:17;-2.70;99.90
23237;DHT22;11787;52.018;8.570;2023-03-01T04:35:43;-2.70;99.90
23237;DHT22;11787;52.018;8.570;2023-03-01T04:38:08;-2.70;99.90
23237;DHT22;11787;52.018;8.570;2023-03-01T04:40:34;-2.70;99.90
23237;DHT22;11787;52.018;8.570;2023-03-01T04:43:00;-2.80;99.90
23237;DHT22;11787;52.018;8.570;2023-03-01T04:45:26;-2.80;99.90
23237;DHT22;11787;52.018;8.570;2023-03-01T04:47:51;-2.80;99.90
23237;DHT22;11787;52.018;8.570;2023-03-01T04:50:20;-2.80;99.90
23237;DHT22;11787;52.018;8.570;2023-03-01T04:52:47;-2.80;99.90
23237;DHT22;11787;52.018;8.570;2023-03-01T04:55:13;-2.70;99.90
23237;DHT22;11787;52.018;8.570;2023-03-01T04:57:39;-2.70;99.90
23237;DHT22;11787;52.018;8.570;2023-03-01T05:00:07;-2.80;99.90
23237;DHT22;11787;52.018;8.570;2023-03-01T05:02:56;-2.80;99.90
23237;DHT22;11787;52.018;8.570;2023-03-01T05:05:43;-2.90;99.90
23237;DHT22;11787;52.018;8.570;2023-03-01T05:08:09;-2.90;99.90
23237;DHT22;11787;52.018;8.570;2023-03-01T05:10:45;-3.00;99.90
23237;DHT22;11787;52.018;8.570;2023-03-01T05:13:12;-3.10;99.90
23237;DHT22;11787;52.018;8.570;2023-03-01T05:15:39;-3.20;99.90
23237;DHT22;11787;52.018;8.570;2023-03-01T05:18:05;-3.20;99.90
23237;DHT22;11787;52.018;8.570;2023-03-01T05:20:37;-3.20;99.90
23237;DHT22;11787;52.018;8.570;2023-03-01T05:23:02;-3.20;99.90
23237;DHT22;11787;52.018;8.570;2023-03-01T05:25:31;-3.20;99.90
23237;DHT22;11787;52.018;8.570;2023-03-01T05:27:59;-3.30;99.90
23237;DHT22;11787;52.018;8.570;2023-03-01T05:30:24;-3.30;99.90
23237;DHT22;11787;52.018;8.570;2023-03-01T05:32:50;-3.30;99.90
23237;DHT22;11787;52.018;8.570;2023-03-01T05:35:21;-3.40;99.90
23237;DHT22;11787;52.018;8.570;2023-03-01T05:37:48;-3.40;99.90
23237;DHT22;11787;52.018;8.570;2023-03-01T05:40:21;-3.40;99.90
23237;DHT22;11787;52.018;8.570;2023-03-01T05:42:49;-3.50;99.90
23237;DHT22;11787;52.018;8.570;2023-03-01T05:45:16;-3.50;99.90
23237;DHT22;11787;52.018;8.570;2023-03-01T05:47:44;-3.50;99.90
23237;DHT22;11787;52.018;8.570;2023-03-01T05:50:19;-3.50;99.90
23237;DHT22;11787;52.018;8.570;2023-03-01T05:52:50;-3.50;99.90
23237;DHT22;11787;52.018;8.570;2023-03-01T05:55:18;-3.60;99.90
23237;DHT22;11787;52.018;8.570;2023-03-01T05:57:44;-3.60;99.90
23237;DHT22;11787;52.018;8.570;2023-03-01T06:00:11;-3.50;99.90
23237;DHT22;11787;52.018;8.570;2023-03-01T06:02:37;-3.50;99.90
23237;DHT22;11787;52.018;8.570;2023-03-01T06:05:04;-3.40;99.90
23237;DHT22;11787;52.018;8.570;2023-03-01T06:07:31;-3.50;99.90
23237;DHT22;11787;52.018;8.570;2023-03-01T06:09:57;-3.50;99.90
23237;DHT22;11787;52.018;8.570;2023-03-01T06:12:22;-3.50;99.90
23237;DHT22;11787;52.018;8.570;2023-03-01T06:14:48;-3.60;99.90
23237;DHT22;11787;52.018;8.570;2023-03-01T06:17:14;-3.50;99.90
23237;DHT22;11787;52.018;8.570;2023-03-01T06:19:39;-3.50;99.90
23237;DHT22;11787;52.018;8.570;2023-03-01T06:22:05;-3.40;99.90
23237;DHT22;11787;52.018;8.570;2023-03-01T06:24:31;-3.40;99.90
23237;DHT22;11787;52.018;8.570;2023-03-01T06:26:56;-3.50;99.90
23237;DHT22;11787;52.018;8.570;2023-03-01T06:29:22;-3.40;99.90
23237;DHT22;11787;52.018;8.570;2023-03-01T06:31:48;-3.40;99.90
23237;DHT22;11787;52.018;8.570;2023-03-01T06:34:14;-3.30;99.90
23237;DHT22;11787;52.018;8.570;2023-03-01T06:36:40;-3.40;99.90
23237;DHT22;11787;52.018;8.570;2023-03-01T06:39:06;-3.30;99.90
23237;DHT22;11787;52.018;8.570;2023-03-01T06:41:32;-3.30;99.90
23237;DHT22;11787;52.018;8.570;2023-03-01T06:43:59;-3.30;99.90
23237;DHT22;11787;52.018;8.570;2023-03-01T06:46:24;-3.20;99.90
23237;DHT22;11787;52.018;8.570;2023-03-01T06:48:50;-3.30;99.90
23237;DHT22;11787;52.018;8.570;2023-03-01T06:51:15;-3.40;99.90
23237;DHT22;11787;52.018;8.570;2023-03-01T06:53:41;-3.30;99.90
23237;DHT22;11787;52.018;8.570;2023-03-01T06:56:06;-3.30;99.90
23237;DHT22;11787;52.018;8.570;2023-03-01T06:58:32;-3.30;99.90
23237;DHT22;11787;52.018;8.570;2023-03-01T07:00:58;-3.30;99.90
23237;DHT22;11787;52.018;8.570;2023-03-01T07:03:23;-3.30;99.90
23237;DHT22;11787;52.018;8.570;2023-03-01T07:05:50;-3.30;99.90
23237;DHT22;11787;52.018;8.570;2023-03-01T07:08:18;-3.30;99.90
23237;DHT22;11787;52.018;8.570;2023-03-01T07:10:43;-3.20;99.90
23237;DHT22;11787;52.018;8.570;2023-03-01T07:13:09;-3.20;99.90
23237;DHT22;11787;52.018;8.570;2023-03-01T07:15:34;-3.10;99.90
23237;DHT22;11787;52.018;8.570;2023-03-01T07:18:00;-3.00;99.90
23237;DHT22;11787;52.018;8.570;2023-03-01T07:20:26;-2.90;99.90
23237;DHT22;11787;52.018;8.570;2023-03-01T07:22:52;-2.90;99.90
23237;DHT22;11787;52.018;8.570;2023-03-01T07:25:18;-2.80;99.90
23237;DHT22;11787;52.018;8.570;2023-03-01T07:27:44;-2.80;99.90
23237;DHT22;11787;52.018;8.570;2023-03-01T07:30:13;-2.80;99.90
23237;DHT22;11787;52.018;8.570;2023-03-01T07:32:39;-2.70;99.90
23237;DHT22;11787;52.018;8.570;2023-03-01T07:35:05;-2.70;99.90
23237;DHT22;11787;52.018;8.570;2023-03-01T07:37:31;-2.60;99.90
23237;DHT22;11787;52.018;8.570;2023-03-01T07:39:56;-2.60;99.90
23237;DHT22;11787;52.018;8.570;2023-03-01T07:42:23;-2.50;99.90
23237;DHT22;11787;52.018;8.570;2023-03-01T07:44:48;-2.40;99.90
23237;DHT22;11787;52.018;8.570;2023-03-01T07:47:14;-2.40;99.90
23237;DHT22;11787;52.018;8.570;2023-03-01T07:49:39;-2.30;99.90
23237;DHT22;11787;52.018;8.570;2023-03-01T07:52:05;-2.30;99.90
23237;DHT22;11787;52.018;8.570;2023-03-01T07:54:31;-2.30;99.90
23237;DHT22;11787;52.018;8.570;2023-03-01T07:56:57;-2.20;99.90
23237;DHT22;11787;52.018;8.570;2023-03-01T07:59:23;-2.10;99.90
23237;DHT22;11787;52.018;8.570;2023-03-01T08:01:54;-2.10;99.90
23237;DHT22;11787;52.018;8.570;2023-03-01T08:04:20;-2.10;99.90
23237;DHT22;11787;52.018;8.570;2023-03-01T08:06:46;-2.00;99.90
23237;DHT22;11787;52.018;8.570;2023-03-01T08:09:11;-2.00;99.90
23237;DHT22;11787;52.018;8.570;2023-03-01T08:11:37;-1.80;99.90
23237;DHT22;11787;52.018;8.570;2023-03-01T08:14:02;-1.90;99.90
23237;DHT22;11787;52.018;8.570;2023-03-01T08:16:29;-1.80;99.90
23237;DHT22;11787;52.018;8.570;2023-03-01T08:18:54;-1.80;99.90
23237;DHT22;11787;52.018;8.570;2023-03-01T08:21:22;-1.70;99.90
23237;DHT22;11787;52.018;8.570;2023-03-01T08:23:47;-1.70;99.90
23237;DHT22;11787;52.018;8.570;2023-03-01T08:26:19;-1.60;99.90
23237;DHT22;11787;52.018;8.570;2023-03-01T08:28:45;-1.50;99.90
23237;DHT22;11787;52.018;8.570;2023-03-01T08:33:48;-1.40;99.90
23237;DHT22;11787;52.018;8.570;2023-03-01T08:36:16;-1.40;99.90
23237;DHT22;11787;52.018;8.570;2023-03-01T08:38:42;-1.40;99.90
23237;DHT22;11787;52.018;8.570;2023-03-01T08:41:08;-1.30;99.90
23237;DHT22;11787;52.018;8.570;2023-03-01T08:43:33;-1.30;99.90
23237;DHT22;11787;52.018;8.570;2023-03-01T08:45:59;-1.20;99.90
23237;DHT22;11787;52.018;8.570;2023-03-01T08:48:25;-1.10;99.90
23237;DHT22;11787;52.018;8.570;2023-03-01T08:50:52;-1.10;99.90
23237;DHT22;11787;52.018;8.570;2023-03-01T08:53:18;-1.10;99.90
23237;DHT22;11787;52.018;8.570;2023-03-01T08:55:43;-1.00;99.90
23237;DHT22;11787;52.018;8.570;2023-03-01T08:58:09;-0.90;99.90
23237;DHT22;11787;52.018;8.570;2023-03-01T09:00:34;-0.90;99.90
23237;DHT22;11787;52.018;8.570;2023-03-01T09:03:00;-0.90;99.90
23237;DHT22;11787;52.018;8.570;2023-03-01T09:05:26;-0.80;99.90
23237;DHT22;11787;52.018;8.570;2023-03-01T09:07:51;-0.80;99.90
23237;DHT22;11787;52.018;8.570;2023-03-01T09:10:17;-0.70;99.90
23237;DHT22;11787;52.018;8.570;2023-03-01T09:12:43;-0.60;99.90
23237;DHT22;11787;52.018;8.570;2023-03-01T09:15:09;-0.50;99.90
23237;DHT22;11787;52.018;8.570;2023-03-01T09:17:35;-0.40;99.90
23237;DHT22;11787;52.018;8.570;2023-03-01T09:20:00;-0.30;99.90
23237;DHT22;11787;52.018;8.570;2023-03-01T09:22:26;-0.20;99.90
23237;DHT22;11787;52.018;8.570;2023-03-01T09:24:51;-0.20;99.90
23237;DHT22;11787;52.018;8.570;2023-03-01T09:27:17;-0.10;99.90
23237;DHT22;11787;52.018;8.570;2023-03-01T09:29:44;0.00;99.90
23237;DHT22;11787;52.018;8.570;2023-03-01T09:32:10;0.20;99.90
23237;DHT22;11787;52.018;8.570;2023-03-01T09:34:36;0.40;99.90
23237;DHT22;11787;52.018;8.570;2023-03-01T09:37:20;0.50;99.90
23237;DHT22;11787;52.018;8.570;2023-03-01T09:39:46;0.50;99.90
23237;DHT22;11787;52.018;8.570;2023-03-01T09:42:12;0.50;99.90
23237;DHT22;11787;52.018;8.570;2023-03-01T09:47:04;0.60;99.90
23237;DHT22;11787;52.018;8.570;2023-03-01T09:49:35;0.80;99.90
23237;DHT22;11787;52.018;8.570;2023-03-01T09:54:53;1.00;99.90
23237;DHT22;11787;52.018;8.570;2023-03-01T09:57:47;1.10;99.90
23237;DHT22;11787;52.018;8.570;2023-03-01T10:00:43;1.20;99.90
23237;DHT22;11787;52.018;8.570;2023-03-01T10:03:31;1.40;99.90
23237;DHT22;11787;52.018;8.570;2023-03-01T10:11:20;1.70;99.90
23237;DHT22;11787;52.018;8.570;2023-03-01T10:13:54;1.80;99.90
23237;DHT22;11787;52.018;8.570;2023-03-01T10:16:44;1.90;99.90
23237;DHT22;11787;52.018;8.570;2023-03-01T10:19:21;2.00;99.90
23237;DHT22;11787;52.018;8.570;2023-03-01T10:21:49;2.10;99.90
23237;DHT22;11787;52.018;8.570;2023-03-01T10:24:18;2.20;99.90
23237;DHT22;11787;52.018;8.570;2023-03-01T10:29:13;2.40;99.90
23237;DHT22;11787;52.018;8.570;2023-03-01T10:31:49;2.50;99.90
23237;DHT22;11787;52.018;8.570;2023-03-01T10:36:42;2.80;99.90
23237;DHT22;11787;52.018;8.570;2023-03-01T10:39:20;2.90;99.90
23237;DHT22;11787;52.018;8.570;2023-03-01T10:44:51;3.20;99.90
23237;DHT22;11787;52.018;8.570;2023-03-01T10:47:27;3.30;99.90
23237;DHT22;11787;52.018;8.570;2023-03-01T10:50:04;3.40;99.90
23237;DHT22;11787;52.018;8.570;2023-03-01T10:52:35;3.40;99.90
23237;DHT22;11787;52.018;8.570;2023-03-01T10:57:39;3.50;99.90
23237;DHT22;11787;52.018;8.570;2023-03-01T11:00:26;3.40;99.90
23237;DHT22;11787;52.018;8.570;2023-03-01T11:03:09;3.40;99.90
23237;DHT22;11787;52.018;8.570;2023-03-01T11:05:36;3.40;99.90
23237;DHT22;11787;52.018;8.570;2023-03-01T11:08:03;3.50;99.90
23237;DHT22;11787;52.018;8.570;2023-03-01T11:10:35;3.40;99.90
23237;DHT22;11787;52.018;8.570;2023-03-01T11:13:08;3.50;99.90
23237;DHT22;11787;52.018;8.570;2023-03-01T11:15:38;3.50;99.90
23237;DHT22;11787;52.018;8.570;2023-03-01T11:18:04;3.50;99.90
23237;DHT22;11787;52.018;8.570;2023-03-01T11:20:32;3.50;99.90
23237;DHT22;11787;52.018;8.570;2023-03-01T11:23:03;3.60;99.90
23237;DHT22;11787;52.018;8.570;2023-03-01T11:25:34;3.60;99.90
23237;DHT22;11787;52.018;8.570;2023-03-01T11:28:04;3.60;99.90
23237;DHT22;11787;52.018;8.570;2023-03-01T11:30:38;3.70;99.90
23237;DHT22;11787;52.018;8.570;2023-03-01T11:35:42;3.80;99.90
23237;DHT22;11787;52.018;8.570;2023-03-01T11:40:49;3.80;99.90
23237;DHT22;11787;52.018;8.570;2023-03-01T11:49:16;4.00;99.90
23237;DHT22;11787;52.018;8.570;2023-03-01T11:51:53;4.00;99.90
23237;DHT22;11787;52.018;8.570;2023-03-01T12:05:25;4.10;99.90
23237;DHT22;11787;52.018;8.570;2023-03-01T12:10:52;4.30;99.90
23237;DHT22;11787;52.018;8.570;2023-03-01T12:16:19;4.30;99.90
23237;DHT22;11787;52.018;8.570;2023-03-01T12:19:13;4.30;99.90
23237;DHT22;11787;52.018;8.570;2023-03-01T12:38:41;4.40;99.90
23237;DHT22;11787;52.018;8.570;2023-03-01T12:46:40;4.60;99.90
23237;DHT22;11787;52.018;8.570;2023-03-01T12:49:18;4.60;99.90
23237;DHT22;11787;52.018;8.570;2023-03-01T12:51:56;4.70;99.90
23237;DHT22;11787;52.018;8.570;2023-03-01T12:54:31;4.80;99.90
23237;DHT22;11787;52.018;8.570;2023-03-01T12:57:02;4.90;99.90
23237;DHT22;11787;52.018;8.570;2023-03-01T12:59:42;4.90;99.90
23237;DHT22;11787;52.018;8.570;2023-03-01T13:08:11;5.30;99.90
23237;DHT22;11787;52.018;8.570;2023-03-01T13:10:46;5.60;99.90
23237;DHT22;11787;52.018;8.570;2023-03-01T13:13:24;5.70;99.90
23237;DHT22;11787;52.018;8.570;2023-03-01T13:15:50;5.80;99.90
23237;DHT22;11787;52.018;8.570;2023-03-01T13:20:49;5.80;99.90
23237;DHT22;11787;52.018;8.570;2023-03-01T13:31:09;6.00;99.90
23237;DHT22;11787;52.018;8.570;2023-03-01T13:38:59;6.10;99.90
23237;DHT22;11787;52.018;8.570;2023-03-01T13:46:52;6.20;99.90
23237;DHT22;11787;52.018;8.570;2023-03-01T13:49:21;6.20;99.90
23237;DHT22;11787;52.018;8.570;2023-03-01T13:51:50;6.30;99.90
23237;DHT22;11787;52.018;8.570;2023-03-01T13:54:25;6.20;99.90
23237;DHT22;11787;52.018;8.570;2023-03-01T13:56:52;6.20;99.90
23237;DHT22;11787;52.018;8.570;2023-03-01T13:59:20;6.20;99.90
23237;DHT22;11787;52.018;8.570;2023-03-01T14:01:54;6.20;99.90
23237;DHT22;11787;52.018;8.570;2023-03-01T14:04:30;6.20;99.90
23237;DHT22;11787;52.018;8.570;2023-03-01T14:07:20;6.10;99.90
23237;DHT22;11787;52.018;8.570;2023-03-01T14:09:51;6.10;99.90
23237;DHT22;11787;52.018;8.570;2023-03-01T14:20:27;6.10;99.90
23237;DHT22;11787;52.018;8.570;2023-03-01T14:22:55;6.10;99.90
23237;DHT22;11787;52.018;8.570;2023-03-01T14:25:23;6.00;99.90
23237;DHT22;11787;52.018;8.570;2023-03-01T14:27:56;6.00;99.90
23237;DHT22;11787;52.018;8.570;2023-03-01T14:30:25;6.00;99.90
23237;DHT22;11787;52.018;8.570;2023-03-01T14:32:53;6.00;99.90
23237;DHT22;11787;52.018;8.570;2023-03-01T14:35:21;5.90;99.90
23237;DHT22;11787;52.018;8.570;2023-03-01T14:37:47;5.80;99.90
23237;DHT22;11787;52.018;8.570;2023-03-01T14:40:41;5.80;99.90
23237;DHT22;11787;52.018;8.570;2023-03-01T14:43:13;5.80;99.90
23237;DHT22;11787;52.018;8.570;2023-03-01T14:45:42;5.70;99.90
23237;DHT22;11787;52.018;8.570;2023-03-01T14:48:12;5.70;99.90
23237;DHT22;11787;52.018;8.570;2023-03-01T14:50:42;5.70;99.90
23237;DHT22;11787;52.018;8.570;2023-03-01T14:53:16;5.70;99.90
23237;DHT22;11787;52.018;8.570;2023-03-01T14:55:46;5.70;99.90
23237;DHT22;11787;52.018;8.570;2023-03-01T14:58:14;5.70;99.90
23237;DHT22;11787;52.018;8.570;2023-03-01T15:01:07;5.60;99.90
23237;DHT22;11787;52.018;8.570;2023-03-01T15:03:47;5.60;99.90
23237;DHT22;11787;52.018;8.570;2023-03-01T15:06:19;5.50;99.90
23237;DHT22;11787;52.018;8.570;2023-03-01T15:08:51;5.50;99.90
23237;DHT22;11787;52.018;8.570;2023-03-01T15:11:22;5.50;99.90
23237;DHT22;11787;52.018;8.570;2023-03-01T15:13:50;5.50;99.90
23237;DHT22;11787;52.018;8.570;2023-03-01T15:18:52;5.50;99.90
23237;DHT22;11787;52.018;8.570;2023-03-01T15:21:22;5.50;99.90
23237;DHT22;11787;52.018;8.570;2023-03-01T15:26:35;5.40;99.90
23237;DHT22;11787;52.018;8.570;2023-03-01T15:29:03;5.40;99.90
23237;DHT22;11787;52.018;8.570;2023-03-01T15:31:32;5.40;99.90
23237;DHT22;11787;52.018;8.570;2023-03-01T15:34:10;5.30;99.90
23237;DHT22;11787;52.018;8.570;2023-03-01T15:36:43;5.30;99.90
23237;DHT22;11787;52.018;8.570;2023-03-01T15:39:43;5.40;99.90
23237;DHT22;11787;52.018;8.570;2023-03-01T15:45:28;5.30;99.90
23237;DHT22;11787;52.018;8.570;2023-03-01T15:47:56;5.30;99.90
23237;DHT22;11787;52.018;8.570;2023-03-01T15:50:35;5.30;99.90
23237;DHT22;11787;52.018;8.570;2023-03-01T15:53:05;5.30;99.90
23237;DHT22;11787;52.018;8.570;2023-03-01T15:55:36;5.20;99.90
23237;DHT22;11787;52.018;8.570;2023-03-01T15:58:10;5.20;99.90
23237;DHT22;11787;52.018;8.570;2023-03-01T16:00:37;5.20;99.90
23237;DHT22;11787;52.018;8.570;2023-03-01T16:03:05;5.10;99.90
23237;DHT22;11787;52.018;8.570;2023-03-01T16:05:33;5.10;99.90
23237;DHT22;11787;52.018;8.570;2023-03-01T16:08:00;5.00;99.90
23237;DHT22;11787;52.018;8.570;2023-03-01T16:10:27;5.00;99.90
23237;DHT22;11787;52.018;8.570;2023-03-01T16:12:53;5.00;99.90
23237;DHT22;11787;52.018;8.570;2023-03-01T16:15:29;4.90;99.90
23237;DHT22;11787;52.018;8.570;2023-03-01T16:17:55;4.90;99.90
23237;DHT22;11787;52.018;8.570;2023-03-01T16:20:24;4.90;99.90
23237;DHT22;11787;52.018;8.570;2023-03-01T16:22:50;4.80;99.90
23237;DHT22;11787;52.018;8.570;2023-03-01T16:25:17;4.70;99.90
23237;DHT22;11787;52.018;8.570;2023-03-01T16:27:44;4.70;99.90
23237;DHT22;11787;52.018;8.570;2023-03-01T16:30:12;4.70;99.90
23237;DHT22;11787;52.018;8.570;2023-03-01T16:32:42;4.60;99.90
23237;DHT22;11787;52.018;8.570;2023-03-01T16:35:10;4.60;99.90
23237;DHT22;11787;52.018;8.570;2023-03-01T16:37:36;4.60;99.90
23237;DHT22;11787;52.018;8.570;2023-03-01T16:40:25;4.50;99.90
23237;DHT22;11787;52.018;8.570;2023-03-01T16:42:52;4.50;99.90
23237;DHT22;11787;52.018;8.570;2023-03-01T16:45:19;4.50;99.90
23237;DHT22;11787;52.018;8.570;2023-03-01T16:47:44;4.50;99.90
23237;DHT22;11787;52.018;8.570;2023-03-01T16:50:10;4.40;99.90
23237;DHT22;11787;52.018;8.570;2023-03-01T16:52:36;4.30;99.90
23237;DHT22;11787;52.018;8.570;2023-03-01T16:55:03;4.30;99.90
23237;DHT22;11787;52.018;8.570;2023-03-01T16:57:30;4.20;99.90
23237;DHT22;11787;52.018;8.570;2023-03-01T16:59:55;4.20;99.90
23237;DHT22;11787;52.018;8.570;2023-03-01T17:02:21;4.10;99.90
23237;DHT22;11787;52.018;8.570;2023-03-01T17:04:54;4.10;99.90
23237;DHT22;11787;52.018;8.570;2023-03-01T17:07:21;4.10;99.90
23237;DHT22;11787;52.018;8.570;2023-03-01T17:09:46;4.00;99.90
23237;DHT22;11787;52.018;8.570;2023-03-01T17:12:13;4.00;99.90
23237;DHT22;11787;52.018;8.570;2023-03-01T17:14:39;3.90;99.90
23237;DHT22;11787;52.018;8.570;2023-03-01T17:17:07;3.90;99.90
23237;DHT22;11787;52.018;8.570;2023-03-01T17:19:33;3.80;99.90
23237;DHT22;11787;52.018;8.570;2023-03-01T17:22:01;3.70;99.90
23237;DHT22;11787;52.018;8.570;2023-03-01T17:24:28;3.60;99.90
23237;DHT22;11787;52.018;8.570;2023-03-01T17:26:56;3.60;99.90
23237;DHT22;11787;52.018;8.570;2023-03-01T17:29:22;3.50;99.90
23237;DHT22;11787;52.018;8.570;2023-03-01T17:31:48;3.50;99.90
23237;DHT22;11787;52.018;8.570;2023-03-01T17:34:13;3.40;99.90
23237;DHT22;11787;52.018;8.570;2023-03-01T17:36:40;3.30;99.90
23237;DHT22;11787;52.018;8.570;2023-03-01T17:39:09;3.30;99.90
23237;DHT22;11787;52.018;8.570;2023-03-01T17:41:35;3.30;99.90
23237;DHT22;11787;52.018;8.570;2023-03-01T17:44:00;3.30;99.90
23237;DHT22;11787;52.018;8.570;2023-03-01T17:46:26;3.20;99.90
23237;DHT22;11787;52.018;8.570;2023-03-01T17:48:52;3.20;99.90
23237;DHT22;11787;52.018;8.570;2023-03-01T17:51:17;3.20;99.90
23237;DHT22;11787;52.018;8.570;2023-03-01T17:53:43;3.10;99.90
23237;DHT22;11787;52.018;8.570;2023-03-01T17:56:09;3.10;99.90